Time,TemperatureF,DewpointF,PressureIn,WindDirection,WindDirectionDegrees,WindSpeedMPH,WindSpeedGustMPH,Humidity,HourlyPrecipIn,Conditions,Clouds,dailyrainin,SoftwareType,DateUTC
2013-01-18 00:53:00,68.0,-99.9,30.12,North,350,22.0,25.0,-999,-99.99,,,-99.99,,2013-01-18 05:53:00,
2013-01-18 01:53:00,67.0,-99.9,30.13,North,350,20.0,24.0,-999,-99.99,,,-99.99,,2013-01-18 06:53:00,
2013-01-18 02:52:00,65.0,-99.9,30.13,NE,40,14.0,16.0,-999,-99.99,,,-99.99,,2013-01-18 07:52:00,
2013-01-18 03:53:00,64.0,-99.9,30.13,NE,40,13.0,16.0,-999,-99.99,,,-99.99,,2013-01-18 08:53:00,
2013-01-18 04:53:00,64.0,-99.9,30.14,NE,40,11.0,14.0,-999,-99.99,,,-99.99,,2013-01-18 09:53:00,
2013-01-18 05:53:00,63.0,-99.9,30.14,NNE,30,10.0,14.0,-999,-99.99,,,-99.99,,2013-01-18 10:53:00,
2013-01-18 06:53:00,63.0,-99.9,30.15,NE,50,13.0,16.0,-999,-99.99,,,-99.99,,2013-01-18 11:53:00,
2013-01-18 07:53:00,62.0,-99.9,30.17,NE,50,11.0,15.0,-999,-99.99,,,-99.99,,2013-01-18 12:53:00,
2013-01-18 08:53:00,61.0,-99.9,30.19,NE,40,16.0,18.0,-999,-99.99,,,-99.99,,2013-01-18 13:53:00,
2013-01-18 09:53:00,60.0,-99.9,30.22,NNE,30,15.0,17.0,-999,-99.99,,,-99.99,,2013-01-18 14:53:00,
2013-01-18 09:54:00,60.0,-99.9,30.24,NNE,30,14.0,16.0,-999,-99.99,,,-99.99,,2013-01-18 14:54:00,
2013-01-18 11:53:00,59.0,-99.9,30.24,NNE,30,14.0,18.0,-999,-99.99,,,-99.99,,2013-01-18 16:53:00,
2013-01-18 12:53:00,59.0,-99.9,30.23,North,10,11.0,14.0,-999,-99.99,,,-99.99,,2013-01-18 17:53:00,
2013-01-18 13:53:00,61.0,-99.9,30.20,North,360,9.0,14.0,-999,-99.99,,,-99.99,,2013-01-18 18:53:00,
2013-01-18 14:53:00,63.0,-99.9,30.17,North,350,10.0,13.0,-999,-99.99,,,-99.99,,2013-01-18 19:53:00,
2013-01-18 15:53:00,62.0,-99.9,30.17,NNW,330,11.0,14.0,-999,-99.99,,,-99.99,,2013-01-18 20:53:00,
2013-01-18 16:53:00,64.0,-99.9,30.17,NE,50,11.0,15.0,-999,-99.99,,,-99.99,,2013-01-18 21:53:00,
2013-01-18 17:53:00,63.0,-99.9,30.18,ENE,60,11.0,15.0,-999,-99.99,,,-99.99,,2013-01-18 22:53:00,
2013-01-18 18:53:00,63.0,-99.9,30.19,ENE,70,11.0,16.0,-999,-99.99,,,-99.99,,2013-01-18 23:53:00,
2013-01-18 19:53:00,64.0,-99.9,30.19,ENE,70,13.0,16.0,-999,-99.99,,,-99.99,,2013-01-19 00:53:00,
2013-01-18 20:53:00,64.0,-99.9,30.20,ENE,70,10.0,13.0,-999,-99.99,,,-99.99,,2013-01-19 01:53:00,
2013-01-18 21:53:00,65.0,-99.9,30.21,East,80,9.0,13.0,-999,-99.99,,,-99.99,,2013-01-19 02:53:00,
2013-01-18 22:53:00,65.0,-99.9,30.21,East,100,9.0,11.0,-999,-99.99,,,-99.99,,2013-01-19 03:53:00,
2013-01-18 23:53:00,66.0,-99.9,30.20,East,80,8.0,9.0,-999,-99.99,,,-99.99,,2013-01-19 04:53:00,